Time;durP1;ratioP1;P1;durP2;ratioP2;P2;SDS_P1;SDS_P2;PMS_P1;PMS_P2;Temp;Humidity;BMP_temperature;BMP_pressure;BME280_temperature;BME280_humidity;BME280_pressure;Samples;Min_cycle;Max_cycle;Signal;HPM_P1;HPM_P2
2022/11/19 00:01:08;;;;;;;24.45;15.82;;;12.10;61.20;;;;;;5033727;28;20112;-81
2022/11/19 00:03:36;;;;;;;24.10;15.73;;;11.80;61.70;;;;;;5054557;28;20025;-88
2022/11/19 00:06:25;;;;;;;23.75;15.00;;;11.80;62.20;;;;;;5034411;28;20516;-81
2022/11/19 00:08:51;;;;;;;24.67;15.77;;;11.90;61.40;;;;;;5053015;28;20025;-90
2022/11/19 00:14:14;;;;;;;28.65;16.67;;;11.00;63.40;;;;;;5052757;28;20044;-80
2022/11/19 00:16:55;;;;;;;24.48;15.65;;;11.10;63.70;;;;;;5036872;28;20456;-84
2022/11/19 00:19:21;;;;;;;23.77;15.43;;;11.50;62.60;;;;;;5036534;28;20088;-82
2022/11/19 00:21:48;;;;;;;27.02;16.75;;;11.70;61.80;;;;;;5053610;28;20053;-81
2022/11/19 00:24:14;;;;;;;26.33;17.10;;;11.90;62.20;;;;;;5039769;28;20081;-91
2022/11/19 00:26:40;;;;;;;27.65;16.23;;;12.00;60.80;;;;;;5064950;28;20028;-85
2022/11/19 00:29:05;;;;;;;35.17;17.27;;;11.80;61.00;;;;;;5060425;28;20021;-86
2022/11/19 00:31:31;;;;;;;26.88;16.75;;;11.80;60.90;;;;;;5071738;28;20024;-93
2022/11/19 00:33:57;;;;;;;28.58;17.35;;;11.60;61.30;;;;;;5078467;28;20554;-85
2022/11/19 00:36:22;;;;;;;27.90;16.45;;;11.60;61.70;;;;;;5076475;28;20503;-79
2022/11/19 00:38:48;;;;;;;29.13;16.92;;;11.50;61.40;;;;;;5078178;28;20569;-82
2022/11/19 00:41:14;;;;;;;26.52;15.60;;;10.80;63.90;;;;;;5077309;28;20024;-82
2022/11/19 00:43:45;;;;;;;27.30;16.80;;;10.50;63.80;;;;;;5055585;28;20079;-83
2022/11/19 00:46:15;;;;;;;25.77;16.30;;;10.50;64.00;;;;;;5040792;28;20029;-90
2022/11/19 00:48:42;;;;;;;28.70;16.42;;;10.70;63.60;;;;;;5036669;28;20034;-87
2022/11/19 00:51:08;;;;;;;25.27;15.65;;;11.00;62.50;;;;;;5035886;28;20029;-83
2022/11/19 00:53:34;;;;;;;29.02;17.52;;;11.10;62.60;;;;;;5034865;28;20390;-82
2022/11/19 00:56:02;;;;;;;27.20;16.67;;;11.20;62.10;;;;;;5044502;28;20087;-89
2022/11/19 00:58:28;;;;;;;29.60;17.45;;;10.90;62.20;;;;;;5052788;28;20049;-86
2022/11/19 01:00:54;;;;;;;29.75;17.45;;;10.70;63.50;;;;;;5060545;28;20060;-89
2022/11/19 01:03:21;;;;;;;29.65;16.67;;;11.00;62.50;;;;;;5057778;28;20029;-88
2022/11/19 01:05:47;;;;;;;28.88;16.75;;;11.10;61.40;;;;;;5057107;28;20139;-82
2022/11/19 01:08:12;;;;;;;30.15;17.17;;;11.10;60.90;;;;;;5056034;28;20057;-82
2022/11/19 01:10:39;;;;;;;27.40;16.55;;;11.10;61.00;;;;;;5047658;28;20026;-92
2022/11/19 01:15:50;;;;;;;28.92;16.83;;;10.50;62.50;;;;;;5059785;28;20116;-92
2022/11/19 01:18:17;;;;;;;29.08;16.98;;;10.70;61.60;;;;;;5057423;28;20067;-83
2022/11/19 01:20:50;;;;;;;29.00;17.33;;;10.90;61.60;;;;;;5058590;28;20429;-86
2022/11/19 01:23:16;;;;;;;28.75;17.08;;;11.00;61.10;;;;;;5054615;28;20035;-93
2022/11/19 01:25:42;;;;;;;30.05;16.92;;;11.20;60.20;;;;;;5055798;28;20037;-89
2022/11/19 01:28:09;;;;;;;29.08;17.17;;;11.20;60.00;;;;;;5083558;28;20020;-93
2022/11/19 01:30:38;;;;;;;33.05;17.23;;;10.80;60.60;;;;;;5072516;28;20050;-82
2022/11/19 01:33:03;;;;;;;34.00;17.20;;;10.80;61.00;;;;;;5059095;28;20398;-84
2022/11/19 01:35:29;;;;;;;32.33;17.02;;;10.80;61.00;;;;;;5059878;28;20017;-92
2022/11/19 01:37:55;;;;;;;32.17;17.58;;;10.60;61.00;;;;;;5052882;28;20393;-83
2022/11/19 01:40:21;;;;;;;29.38;17.05;;;10.70;61.10;;;;;;5039378;28;20025;-83
2022/11/19 01:42:49;;;;;;;30.38;16.13;;;10.60;61.00;;;;;;5039665;28;20044;-83
2022/11/19 01:45:43;;;;;;;30.00;17.13;;;10.40;60.90;;;;;;5038489;28;20041;-83
2022/11/19 01:48:23;;;;;;;33.25;17.75;;;10.30;61.90;;;;;;5040879;28;20033;-93
2022/11/19 01:50:55;;;;;;;34.47;18.40;;;10.50;61.40;;;;;;5037771;28;20052;-84
2022/11/19 01:53:25;;;;;;;33.15;18.40;;;10.70;61.00;;;;;;5037211;28;20386;-91
2022/11/19 01:55:51;;;;;;;32.45;17.55;;;11.00;60.30;;;;;;5055324;28;20040;-92
2022/11/19 01:58:20;;;;;;;37.35;20.45;;;11.20;59.20;;;;;;5040147;28;20033;-91
2022/11/19 02:00:47;;;;;;;33.30;19.13;;;11.00;60.00;;;;;;5049317;28;20013;-84
2022/11/19 02:03:15;;;;;;;34.88;19.90;;;10.70;59.80;;;;;;5060455;28;20037;-85
2022/11/19 02:05:41;;;;;;;33.85;18.70;;;10.60;60.60;;;;;;5046025;28;20124;-83
2022/11/19 02:08:09;;;;;;;34.28;18.80;;;10.40;60.20;;;;;;5045303;28;20037;-86
2022/11/19 02:10:51;;;;;;;34.40;20.02;;;10.20;61.90;;;;;;5039934;28;20414;-85
2022/11/19 02:13:30;;;;;;;35.55;18.63;;;10.40;60.80;;;;;;5043441;28;20032;-93
2022/11/19 02:16:09;;;;;;;38.63;20.10;;;10.70;60.30;;;;;;5058680;28;20144;-85
2022/11/19 02:18:41;;;;;;;36.85;20.25;;;10.40;60.60;;;;;;5054482;28;20110;-88
2022/11/19 02:21:18;;;;;;;36.53;19.35;;;10.50;60.50;;;;;;5053569;28;20034;-80
2022/11/19 02:24:12;;;;;;;33.63;19.48;;;10.10;61.00;;;;;;5052015;28;20134;-93
2022/11/19 02:27:24;;;;;;;37.20;20.70;;;10.00;61.40;;;;;;5041743;28;20132;-84
2022/11/19 02:29:58;;;;;;;36.83;20.05;;;9.70;62.20;;;;;;5054402;28;20028;-94
2022/11/19 02:32:46;;;;;;;41.00;20.17;;;9.70;62.00;;;;;;5045978;28;20033;-82
2022/11/19 02:35:40;;;;;;;38.17;20.58;;;9.70;63.10;;;;;;5036814;28;20026;-89
2022/11/19 02:38:26;;;;;;;40.33;21.88;;;9.90;61.50;;;;;;5065123;28;20032;-84
2022/11/19 02:40:58;;;;;;;37.17;20.80;;;10.10;61.50;;;;;;5057848;28;20053;-89
2022/11/19 02:43:29;;;;;;;37.65;20.88;;;9.90;61.00;;;;;;5043518;28;20060;-88
2022/11/19 02:46:07;;;;;;;41.88;22.10;;;9.90;61.90;;;;;;5057088;28;20069;-85
2022/11/19 02:48:48;;;;;;;38.63;20.60;;;10.20;61.60;;;;;;5059899;28;20032;-85
2022/11/19 02:51:17;;;;;;;39.00;21.52;;;10.30;61.10;;;;;;5055216;28;20026;-87
2022/11/19 02:53:45;;;;;;;37.42;20.77;;;10.30;60.10;;;;;;5039424;28;20034;-83
2022/11/19 02:56:50;;;;;;;37.15;20.88;;;10.00;61.20;;;;;;5033833;28;20024;-89
2022/11/19 03:04:54;;;;;;;36.05;20.20;;;9.50;61.80;;;;;;5044165;28;20115;-90
2022/11/19 03:07:20;;;;;;;37.22;20.95;;;9.60;61.80;;;;;;5050858;28;20039;-89
2022/11/19 03:09:54;;;;;;;38.70;19.90;;;9.70;61.00;;;;;;5043737;28;20104;-93
2022/11/19 03:12:57;;;;;;;39.05;21.05;;;9.20;61.40;;;;;;5043835;28;20509;-85
2022/11/19 03:18:58;;;;;;;36.95;20.38;;;9.00;62.20;;;;;;5049588;28;20067;-93
2022/11/19 03:21:34;;;;;;;37.00;20.13;;;9.00;62.70;;;;;;5056067;28;20482;-83
2022/11/19 03:24:07;;;;;;;38.78;20.98;;;9.50;61.80;;;;;;5036409;28;20028;-86
2022/11/19 03:26:38;;;;;;;41.88;21.20;;;9.70;61.60;;;;;;5035334;28;20454;-87
2022/11/19 03:29:09;;;;;;;41.38;20.45;;;9.80;60.90;;;;;;5036222;28;20425;-82
2022/11/19 03:31:37;;;;;;;38.85;20.50;;;9.80;60.40;;;;;;5048818;28;20470;-81
2022/11/19 03:34:08;;;;;;;33.33;18.38;;;9.70;61.00;;;;;;5058134;28;20041;-84
2022/11/19 03:36:39;;;;;;;37.70;19.88;;;9.30;61.70;;;;;;5050800;28;20028;-83
2022/11/19 03:39:10;;;;;;;36.78;18.92;;;9.60;61.70;;;;;;5034869;28;20032;-84
2022/11/19 03:41:39;;;;;;;34.67;19.33;;;9.90;60.40;;;;;;5052484;28;20384;-90
2022/11/19 03:44:23;;;;;;;38.08;19.02;;;9.80;59.50;;;;;;5059424;28;20393;-86
2022/11/19 03:47:17;;;;;;;37.33;19.20;;;9.70;60.00;;;;;;5055121;28;20056;-93
2022/11/19 03:49:47;;;;;;;35.22;18.80;;;9.30;60.90;;;;;;5051619;28;20513;-90
2022/11/19 03:52:14;;;;;;;;;;;9.70;60.20;;;;;;5048168;28;20038;-94
2022/11/19 03:54:41;;;;;;;36.40;19.33;;;9.70;60.60;;;;;;5057689;28;20342;-85
2022/11/19 03:57:10;;;;;;;38.72;19.75;;;9.60;60.20;;;;;;5049135;28;20036;-83
2022/11/19 03:59:36;;;;;;;36.80;19.45;;;9.60;60.40;;;;;;5053477;28;20029;-85
2022/11/19 04:02:06;;;;;;;40.85;19.58;;;9.20;61.20;;;;;;5053213;28;20024;-93
2022/11/19 04:04:35;;;;;;;38.92;20.48;;;8.80;61.80;;;;;;5040975;28;20401;-89
2022/11/19 04:07:07;;;;;;;38.57;19.87;;;8.50;62.80;;;;;;5055692;28;20558;-83
2022/11/19 04:09:33;;;;;;;38.28;19.60;;;8.30;62.60;;;;;;5056247;28;20394;-83
2022/11/19 04:12:00;;;;;;;40.78;20.52;;;8.40;63.60;;;;;;5053415;28;20018;-90
2022/11/19 04:14:25;;;;;;;37.58;19.58;;;8.70;62.90;;;;;;5055604;28;20024;-83
2022/11/19 04:16:51;;;;;;;36.33;19.80;;;8.90;62.20;;;;;;5052837;28;20091;-86
2022/11/19 04:19:30;;;;;;;34.85;19.05;;;9.10;61.60;;;;;;5053779;28;20393;-84
2022/11/19 04:21:56;;;;;;;35.65;18.75;;;8.80;61.70;;;;;;5044461;28;20031;-87
2022/11/19 04:24:21;;;;;;;34.08;18.60;;;8.90;61.80;;;;;;5045716;28;20024;-85
2022/11/19 04:26:47;;;;;;;34.92;19.90;;;9.00;62.10;;;;;;5054955;28;20036;-84
2022/11/19 04:29:13;;;;;;;35.58;19.23;;;9.30;60.50;;;;;;5033611;28;20124;-91
2022/11/19 04:31:39;;;;;;;38.85;20.58;;;9.60;61.00;;;;;;5055981;28;20020;-91
2022/11/19 04:34:05;;;;;;;39.45;20.75;;;9.70;60.40;;;;;;5055672;28;20055;-90
2022/11/19 04:36:31;;;;;;;37.60;20.50;;;9.80;59.70;;;;;;5043237;28;20470;-85
2022/11/19 04:38:57;;;;;;;37.47;19.65;;;9.90;60.10;;;;;;5048495;28;20048;-87
2022/11/19 04:41:23;;;;;;;35.97;19.75;;;9.80;60.10;;;;;;5038244;28;20029;-92
2022/11/19 04:43:52;;;;;;;37.47;20.40;;;9.70;60.30;;;;;;5049591;28;20027;-84
2022/11/19 04:46:18;;;;;;;38.00;20.48;;;9.20;60.90;;;;;;5055662;28;20044;-90
2022/11/19 04:48:43;;;;;;;37.10;19.48;;;9.00;62.30;;;;;;5041267;28;20025;-84
2022/11/19 04:51:09;;;;;;;35.42;19.25;;;9.10;61.50;;;;;;5050875;28;20026;-85
2022/11/19 04:53:36;;;;;;;41.47;21.35;;;9.40;61.10;;;;;;5049815;28;20028;-86
2022/11/19 04:56:03;;;;;;;38.65;20.48;;;9.40;61.20;;;;;;5043509;28;20025;-85
2022/11/19 04:58:30;;;;;;;37.83;19.90;;;9.50;60.10;;;;;;5040315;28;20017;-92
2022/11/19 05:00:57;;;;;;;35.58;19.08;;;9.40;61.00;;;;;;5067278;28;20056;-83
2022/11/19 05:03:26;;;;;;;35.58;19.15;;;9.70;60.70;;;;;;5039057;28;20046;-87
2022/11/19 05:05:55;;;;;;;35.58;19.35;;;10.10;59.80;;;;;;5035088;28;20491;-81
2022/11/19 05:08:21;;;;;;;35.38;18.60;;;10.10;59.00;;;;;;5034730;28;20087;-84
2022/11/19 05:10:48;;;;;;;37.30;20.67;;;10.00;60.10;;;;;;5033524;28;20026;-86
2022/11/19 05:13:14;;;;;;;35.53;19.63;;;10.30;59.30;;;;;;5036517;28;20029;-82
2022/11/19 05:15:40;;;;;;;37.30;20.38;;;10.20;58.60;;;;;;5045889;28;20028;-94
2022/11/19 05:18:06;;;;;;;34.65;19.17;;;10.50;58.80;;;;;;5059816;28;20036;-87
2022/11/19 05:20:35;;;;;;;36.50;19.40;;;10.40;57.90;;;;;;5051016;28;20025;-92
2022/11/19 05:23:00;;;;;;;37.88;18.90;;;10.40;58.20;;;;;;5049234;28;20029;-95
2022/11/19 05:25:26;;;;;;;37.00;19.05;;;10.60;57.30;;;;;;5058298;28;20485;-86
2022/11/19 05:27:54;;;;;;;34.55;18.35;;;10.50;57.80;;;;;;5055506;28;20021;-93
2022/11/19 05:30:20;;;;;;;35.95;19.27;;;10.50;57.60;;;;;;5055569;28;20036;-92
2022/11/19 05:32:46;;;;;;;37.60;19.10;;;10.50;57.70;;;;;;5054756;28;20021;-85
2022/11/19 05:35:15;;;;;;;36.80;18.88;;;10.60;57.40;;;;;;5052044;28;20108;-83
2022/11/19 05:37:48;;;;;;;38.20;19.42;;;10.70;57.60;;;;;;5051812;28;20106;-89
2022/11/19 05:40:16;;;;;;;33.78;17.45;;;10.80;57.50;;;;;;5061299;28;20112;-82
2022/11/19 05:42:42;;;;;;;34.15;18.98;;;10.80;56.90;;;;;;5055941;28;20385;-93
2022/11/19 05:45:09;;;;;;;32.55;18.45;;;10.50;57.80;;;;;;5061300;28;20040;-89
2022/11/19 05:47:35;;;;;;;37.08;19.25;;;10.40;57.60;;;;;;5060649;28;20082;-85
2022/11/19 05:50:03;;;;;;;39.28;19.00;;;10.40;57.80;;;;;;5057407;28;20105;-83
2022/11/19 05:52:29;;;;;;;33.85;18.20;;;10.40;57.90;;;;;;5049414;28;20021;-83
2022/11/19 05:54:55;;;;;;;33.45;19.23;;;10.20;57.70;;;;;;5039731;28;20025;-91
2022/11/19 05:57:20;;;;;;;35.15;18.80;;;10.10;58.10;;;;;;5056027;28;20528;-82
2022/11/19 05:59:48;;;;;;;39.92;20.77;;;10.20;57.90;;;;;;5038811;28;20034;-81
2022/11/19 06:02:13;;;;;;;34.05;18.27;;;10.40;57.60;;;;;;5035879;28;20041;-84
2022/11/19 06:04:39;;;;;;;35.75;18.73;;;10.40;57.60;;;;;;5040324;28;20057;-86
2022/11/19 06:07:05;;;;;;;34.80;19.00;;;10.30;58.00;;;;;;5027220;28;20027;-86
2022/11/19 06:09:31;;;;;;;38.58;20.70;;;10.20;58.10;;;;;;5043590;28;20029;-86
2022/11/19 06:11:57;;;;;;;32.97;19.42;;;10.30;57.70;;;;;;5044372;28;20029;-90
2022/11/19 06:14:24;;;;;;;33.88;18.45;;;10.00;58.70;;;;;;5055773;28;20033;-87
2022/11/19 06:16:53;;;;;;;36.97;18.58;;;10.00;58.10;;;;;;5057628;28;20102;-84
2022/11/19 06:19:20;;;;;;;41.78;22.42;;;9.90;57.90;;;;;;5056999;28;20040;-86
2022/11/19 06:21:50;;;;;;;36.67;19.85;;;9.90;59.00;;;;;;5060596;28;20140;-85
2022/11/19 06:24:15;;;;;;;38.25;21.70;;;9.40;59.60;;;;;;5059604;28;20420;-86
2022/11/19 06:26:49;;;;;;;37.75;20.30;;;9.50;60.00;;;;;;4963667;28;10000909;-91
2022/11/19 06:29:16;;;;;;;39.63;19.88;;;9.50;59.50;;;;;;5035816;28;20225;-84
2022/11/19 06:31:42;;;;;;;37.97;21.10;;;9.40;60.30;;;;;;5039620;28;20025;-82
2022/11/19 06:34:11;;;;;;;37.63;20.58;;;9.30;59.90;;;;;;5037103;28;20269;-85
2022/11/19 06:36:37;;;;;;;41.40;21.63;;;9.40;60.30;;;;;;5039424;28;20029;-87
2022/11/19 06:39:03;;;;;;;36.85;19.80;;;9.40;60.30;;;;;;5038746;28;20091;-77
2022/11/19 06:41:28;;;;;;;41.83;23.17;;;9.50;60.10;;;;;;5038890;28;20022;-92
2022/11/19 06:43:54;;;;;;;38.72;20.17;;;9.30;59.40;;;;;;5039885;28;20012;-85
2022/11/19 06:46:23;;;;;;;35.75;19.00;;;9.10;60.00;;;;;;5040982;28;20041;-86
2022/11/19 06:48:49;;;;;;;39.60;19.05;;;9.00;60.40;;;;;;5039035;28;20025;-83
2022/11/19 06:51:20;;;;;;;35.28;19.58;;;9.10;60.40;;;;;;5037648;28;20385;-82
2022/11/19 06:53:45;;;;;;;;;;;9.20;59.10;;;;;;5036650;28;20124;-81
2022/11/19 06:56:11;;;;;;;39.60;18.45;;;9.00;60.40;;;;;;5041292;28;19941;-86
2022/11/19 06:58:37;;;;;;;34.13;17.75;;;9.10;60.50;;;;;;5046053;28;20025;-94
2022/11/19 07:01:08;;;;;;;37.85;19.95;;;9.50;59.50;;;;;;5044421;28;20537;-86
2022/11/19 07:03:34;;;;;;;39.55;20.13;;;9.20;59.10;;;;;;5040470;28;20049;-88
2022/11/19 07:06:03;;;;;;;41.00;22.52;;;9.00;60.30;;;;;;5036529;28;20383;-89
2022/11/19 07:08:32;;;;;;;38.15;19.70;;;9.30;59.40;;;;;;5041308;28;20424;-88
2022/11/19 07:10:58;;;;;;;35.05;18.98;;;9.40;61.10;;;;;;5049367;28;20144;-85
2022/11/19 07:13:55;;;;;;;38.60;20.25;;;9.80;59.10;;;;;;5035023;28;20541;-89
2022/11/19 07:16:09;;;;;;;36.80;20.00;;;9.70;59.60;;;;;;5035274;28;20060;-90
2022/11/19 07:18:35;;;;;;;36.00;18.38;;;10.20;58.10;;;;;;5038118;28;20120;-83
2022/11/19 07:21:00;;;;;;;33.75;18.58;;;10.70;56.80;;;;;;5042780;28;20089;-90
2022/11/19 07:23:26;;;;;;;33.50;19.08;;;11.00;56.90;;;;;;5040442;28;20021;-92
2022/11/19 07:25:59;;;;;;;38.63;19.00;;;11.10;56.50;;;;;;5039089;28;20390;-85
2022/11/19 07:28:25;;;;;;;35.63;19.30;;;10.90;56.10;;;;;;5038087;28;20113;-89
2022/11/19 07:30:50;;;;;;;36.60;19.13;;;10.90;55.80;;;;;;5042165;28;20056;-94
2022/11/19 07:33:16;;;;;;;37.63;19.35;;;10.90;55.70;;;;;;5039495;28;20048;-88
2022/11/19 07:35:42;;;;;;;35.70;19.65;;;10.90;55.20;;;;;;5039991;28;20172;-88
2022/11/19 07:38:08;;;;;;;33.63;18.35;;;10.80;55.80;;;;;;5038000;28;20394;-89
2022/11/19 07:40:34;;;;;;;35.85;18.55;;;11.10;55.80;;;;;;5039545;28;20037;-87
2022/11/19 07:43:01;;;;;;;37.78;20.52;;;11.30;55.30;;;;;;5038709;28;20428;-93
2022/11/19 07:45:28;;;;;;;34.83;19.15;;;10.90;55.10;;;;;;5040235;28;20033;-89
2022/11/19 07:48:03;;;;;;;37.92;21.20;;;11.00;56.20;;;;;;5042626;28;20029;-89
2022/11/19 07:50:32;;;;;;;33.85;19.45;;;11.30;56.30;;;;;;5041113;28;20030;-85
2022/11/19 07:53:00;;;;;;;37.72;20.58;;;11.20;55.50;;;;;;5040738;28;20017;-88
2022/11/19 07:55:27;;;;;;;39.42;20.17;;;11.00;56.90;;;;;;5038290;28;20053;-90
2022/11/19 07:57:57;;;;;;;41.00;21.35;;;11.30;56.50;;;;;;5042611;28;20030;-85
2022/11/19 08:00:23;;;;;;;39.78;21.80;;;11.80;55.40;;;;;;5042582;28;20049;-88
2022/11/19 08:02:49;;;;;;;36.22;19.77;;;12.00;55.20;;;;;;5023639;28;20056;-88
2022/11/19 08:05:16;;;;;;;37.97;19.98;;;12.00;54.90;;;;;;5043433;28;20485;-86
2022/11/19 08:07:42;;;;;;;36.00;19.70;;;12.10;54.80;;;;;;5043001;28;20088;-90
2022/11/19 08:10:10;;;;;;;36.65;20.25;;;11.90;54.70;;;;;;5039538;28;20033;-90
2022/11/19 08:12:40;;;;;;;36.67;19.27;;;11.70;56.20;;;;;;5044360;28;20021;-87
2022/11/19 08:15:07;;;;;;;36.88;20.25;;;12.00;55.10;;;;;;5043456;28;20029;-92
2022/11/19 08:20:18;;;;;;;36.85;20.67;;;12.40;54.30;;;;;;5042851;28;20080;-89
2022/11/19 08:22:43;;;;;;;39.90;19.70;;;12.30;54.20;;;;;;5042028;28;20021;-90
2022/11/19 08:25:09;;;;;;;32.60;18.45;;;12.40;54.60;;;;;;5040874;28;20091;-85
2022/11/19 08:27:41;;;;;;;39.33;20.88;;;12.10;53.30;;;;;;5045524;28;20049;-87
2022/11/19 08:30:08;;;;;;;33.58;18.30;;;11.80;53.80;;;;;;5043490;28;20021;-84
2022/11/19 08:32:36;;;;;;;36.85;20.75;;;11.50;54.50;;;;;;5042046;28;20030;-86
2022/11/19 08:35:02;;;;;;;37.75;19.30;;;11.30;55.50;;;;;;5042351;28;20028;-86
2022/11/19 08:37:27;;;;;;;35.47;20.02;;;11.10;55.50;;;;;;5044087;28;20029;-88
2022/11/19 08:39:53;;;;;;;36.47;20.00;;;11.30;56.30;;;;;;5042319;28;20094;-90
2022/11/19 08:45:05;;;;;;;36.50;19.85;;;11.70;55.60;;;;;;5043940;28;20091;-85
2022/11/19 08:47:31;;;;;;;38.33;21.70;;;11.80;54.80;;;;;;5042069;28;20036;-85
2022/11/19 08:49:57;;;;;;;39.72;20.88;;;11.80;54.60;;;;;;5046430;28;20010;-89
2022/11/19 08:52:23;;;;;;;37.03;19.90;;;11.90;54.20;;;;;;5047016;28;20029;-91
2022/11/19 08:54:49;;;;;;;38.22;20.00;;;12.00;55.00;;;;;;5043006;28;20037;-88
2022/11/19 08:57:15;;;;;;;36.70;20.92;;;11.80;54.70;;;;;;5044978;28;20030;-86
2022/11/19 08:59:40;;;;;;;38.53;21.33;;;11.90;54.80;;;;;;5043092;28;20025;-86
2022/11/19 09:02:09;;;;;;;37.30;20.38;;;11.80;54.80;;;;;;5043255;28;20021;-86
2022/11/19 09:04:37;;;;;;;38.70;21.60;;;12.00;54.60;;;;;;5045003;28;20049;-86
2022/11/19 09:07:04;;;;;;;39.00;21.85;;;12.10;54.10;;;;;;5044481;28;20440;-87
2022/11/19 09:09:32;;;;;;;37.72;20.48;;;12.30;54.30;;;;;;5045167;28;20026;-86
2022/11/19 09:11:59;;;;;;;39.30;21.23;;;13.30;53.50;;;;;;5047054;28;20038;-85
2022/11/19 09:14:27;;;;;;;38.78;22.35;;;14.10;52.30;;;;;;5045858;28;20085;-87
2022/11/19 09:16:52;;;;;;;40.75;21.20;;;14.30;51.60;;;;;;5042709;28;20040;-86
2022/11/19 09:19:18;;;;;;;36.90;21.10;;;13.60;52.20;;;;;;5041183;28;20022;-86
2022/11/19 09:21:44;;;;;;;37.95;21.63;;;13.00;53.20;;;;;;5046710;28;20120;-83
2022/11/19 09:24:11;;;;;;;39.40;22.40;;;12.90;52.50;;;;;;5044929;28;20030;-85
2022/11/19 09:27:05;;;;;;;37.17;21.52;;;12.50;54.70;;;;;;5047287;28;20048;-87
2022/11/19 09:31:00;;;;;;;40.78;21.92;;;12.80;53.70;;;;;;5082184;27;1765731;-87
2022/11/19 09:33:28;;;;;;;40.80;22.08;;;13.50;52.50;;;;;;5104733;28;20032;-85
2022/11/19 09:35:54;;;;;;;39.75;22.63;;;13.60;52.40;;;;;;5108832;22;20062;-84
2022/11/19 09:38:24;;;;;;;41.03;21.58;;;14.10;51.70;;;;;;5041427;28;20025;-88
2022/11/19 09:40:52;;;;;;;;;;;15.00;51.80;;;;;;5041907;28;20032;-86
2022/11/19 09:43:33;;;;;;;40.63;22.65;;;16.20;49.50;;;;;;5039297;28;19909;-86
2022/11/19 09:46:32;;;;;;;39.25;22.17;;;16.50;48.30;;;;;;5041719;28;20092;-86
2022/11/19 09:49:02;;;;;;;37.65;21.63;;;16.00;48.50;;;;;;5042285;28;20033;-89
2022/11/19 09:51:46;;;;;;;38.60;21.63;;;15.20;48.70;;;;;;5037574;28;20048;-82
2022/11/19 09:54:19;;;;;;;45.72;22.60;;;14.20;50.30;;;;;;5035871;28;20025;-85
2022/11/19 09:56:48;;;;;;;37.05;21.55;;;13.60;51.60;;;;;;5040666;28;20468;-89
2022/11/19 09:59:41;;;;;;;38.63;21.80;;;13.20;52.10;;;;;;5036574;28;20449;-92
2022/11/19 10:02:21;;;;;;;38.78;23.05;;;12.70;52.90;;;;;;5040661;28;20057;-85
2022/11/19 10:04:59;;;;;;;38.65;22.15;;;12.50;53.60;;;;;;5039881;28;20094;-83
2022/11/19 10:11:10;;;;;;;36.42;21.25;;;12.30;52.60;;;;;;5041978;28;20080;-87
2022/11/19 10:14:21;;;;;;;35.17;20.38;;;12.30;55.10;;;;;;5054929;28;20436;-88
2022/11/19 10:17:30;;;;;;;38.38;20.10;;;12.30;52.80;;;;;;4980515;28;20439;-85
2022/11/19 10:20:12;;;;;;;38.60;20.33;;;11.90;53.80;;;;;;4964194;28;20037;-87
2022/11/19 10:22:42;;;;;;;232.23;114.13;;;12.00;53.70;;;;;;4980972;28;20131;-88
2022/11/19 10:25:53;;;;;;;128.40;85.50;;;12.10;54.30;;;;;;4978222;28;20037;-86
2022/11/19 10:28:24;;;;;;;165.95;127.53;;;12.20;53.10;;;;;;4985787;28;20055;-85
2022/11/19 18:50:39;;;;;;;50.42;27.60;;;3.60;90.70;;;;;;4721013;27;10002124;-90
2022/11/19 18:55:59;;;;;;;50.33;28.80;;;6.00;86.20;;;;;;5047709;28;20041;-92
2022/11/19 18:58:24;;;;;;;43.55;24.48;;;7.50;76.70;;;;;;5031306;28;20041;-92
2022/11/19 19:00:50;;;;;;;143.98;129.70;;;8.40;73.10;;;;;;5031450;28;20029;-92
2022/11/19 19:03:16;;;;;;;41.63;20.58;;;9.30;70.00;;;;;;5031923;28;20531;-89
2022/11/19 19:05:45;;;;;;;132.88;81.50;;;9.80;67.10;;;;;;5052539;28;20032;-91
2022/11/19 19:08:12;;;;;;;42.63;22.63;;;10.10;64.90;;;;;;5061353;28;20170;-88
2022/11/19 19:10:40;;;;;;;40.70;19.02;;;10.20;64.80;;;;;;5050413;28;20029;-87
2022/11/19 19:13:06;;;;;;;40.17;20.08;;;10.50;64.30;;;;;;5040864;28;20021;-89
2022/11/19 19:15:32;;;;;;;43.22;20.75;;;10.60;63.40;;;;;;5044899;28;20034;-89
2022/11/19 19:17:58;;;;;;;42.38;20.85;;;11.00;62.60;;;;;;5053296;28;20026;-93
2022/11/19 19:20:23;;;;;;;47.67;22.83;;;11.20;62.10;;;;;;5047515;28;20045;-90
2022/11/19 19:22:49;;;;;;;40.88;21.05;;;11.20;61.50;;;;;;5030800;28;20075;-89
2022/11/19 19:25:15;;;;;;;38.97;20.70;;;11.00;61.70;;;;;;5047752;28;20036;-91
2022/11/19 19:27:41;;;;;;;38.70;21.05;;;10.60;61.90;;;;;;5048640;28;20033;-90
2022/11/19 19:30:08;;;;;;;41.42;20.83;;;10.10;62.50;;;;;;5050462;28;20029;-89
2022/11/19 19:32:34;;;;;;;39.08;19.13;;;9.90;64.00;;;;;;5054789;28;20075;-90
2022/11/19 19:34:59;;;;;;;38.08;19.23;;;9.80;63.90;;;;;;5069890;28;20024;-89
2022/11/19 19:37:25;;;;;;;46.42;26.50;;;9.90;63.60;;;;;;5063972;28;20036;-89
2022/11/19 19:39:51;;;;;;;41.42;23.35;;;9.80;63.70;;;;;;5067400;28;20040;-89
2022/11/19 19:42:16;;;;;;;42.10;19.98;;;10.20;63.10;;;;;;5068043;28;20021;-90
2022/11/19 19:44:45;;;;;;;34.25;17.50;;;10.20;62.60;;;;;;5068019;28;20118;-90
2022/11/19 19:47:11;;;;;;;36.55;19.02;;;9.80;63.10;;;;;;5055408;28;20021;-91
2022/11/19 19:49:47;;;;;;;;;;;;;;;;;;;;;
2022/11/19 19:52:13;;;;;;;33.50;18.48;;;9.20;64.50;;;;;;5058073;28;20502;-92
2022/11/19 19:54:39;;;;;;;39.97;20.33;;;9.00;66.20;;;;;;5057383;28;20029;-91
2022/11/19 19:57:05;;;;;;;37.72;19.50;;;9.20;66.00;;;;;;5060274;28;20418;-88
2022/11/19 19:59:31;;;;;;;46.60;20.25;;;9.40;64.60;;;;;;5057663;28;20095;-88
2022/11/19 20:01:56;;;;;;;39.22;20.08;;;9.60;64.50;;;;;;5043729;28;20074;-88
2022/11/19 20:04:22;;;;;;;40.45;20.27;;;9.30;64.10;;;;;;5035031;28;20025;-93
2022/11/19 20:06:50;;;;;;;38.90;20.48;;;9.50;64.90;;;;;;5035322;28;20029;-91
2022/11/19 20:09:19;;;;;;;38.13;19.88;;;9.70;63.40;;;;;;5035213;28;20033;-88
2022/11/19 20:11:44;;;;;;;38.17;18.98;;;9.90;63.30;;;;;;5035279;28;20021;-92
2022/11/19 20:14:10;;;;;;;32.17;17.77;;;9.70;63.40;;;;;;5046000;28;20025;-90
2022/11/19 20:16:44;;;;;;;35.35;17.73;;;9.80;63.50;;;;;;5037912;28;20017;-90
2022/11/19 20:19:13;;;;;;;35.60;17.38;;;10.20;62.00;;;;;;5045288;28;20037;-91
2022/11/19 20:21:40;;;;;;;33.83;17.05;;;10.10;62.90;;;;;;5049559;28;20022;-89
2022/11/19 20:24:07;;;;;;;34.15;16.83;;;9.90;62.20;;;;;;5039744;28;20414;-91
2022/11/19 20:26:33;;;;;;;37.75;18.83;;;10.00;61.70;;;;;;5048534;28;20032;-90
2022/11/19 20:29:01;;;;;;;36.95;19.42;;;10.00;62.30;;;;;;5054011;28;20142;-91
2022/11/19 20:31:28;;;;;;;34.55;18.45;;;10.20;62.00;;;;;;5054536;28;20028;-91
2022/11/19 20:33:56;;;;;;;38.63;19.25;;;10.40;61.40;;;;;;5052640;28;20020;-89
2022/11/19 20:36:23;;;;;;;32.55;16.63;;;10.80;61.00;;;;;;5054887;28;20037;-88
2022/11/19 20:38:49;;;;;;;32.97;17.35;;;11.00;59.40;;;;;;5040959;28;20036;-91
2022/11/19 20:44:20;;;;;;;31.83;15.98;;;10.90;59.30;;;;;;5045831;28;20067;-92
2022/11/19 20:46:47;;;;;;;31.48;15.73;;;11.10;58.30;;;;;;5033737;28;20041;-87
2022/11/19 20:49:17;;;;;;;29.25;15.93;;;11.10;58.20;;;;;;5042086;28;20068;-87
2022/11/19 20:51:43;;;;;;;31.20;16.77;;;11.10;58.10;;;;;;5052827;28;20032;-88
2022/11/19 20:54:12;;;;;;;34.95;16.70;;;10.80;58.50;;;;;;5051512;28;20071;-88
2022/11/19 20:56:39;;;;;;;35.15;16.67;;;10.40;58.90;;;;;;5049265;28;20032;-89
2022/11/19 20:59:05;;;;;;;31.80;16.88;;;10.30;58.90;;;;;;5053970;28;20044;-90
2022/11/19 21:01:31;;;;;;;31.23;16.35;;;10.20;59.50;;;;;;5052710;28;20014;-90
2022/11/19 21:03:58;;;;;;;30.42;16.75;;;9.70;60.80;;;;;;5053118;28;20506;-86
2022/11/19 21:06:24;;;;;;;30.98;16.02;;;9.70;61.60;;;;;;5050632;28;20021;-90
2022/11/19 21:08:50;;;;;;;31.73;15.23;;;9.80;60.60;;;;;;5034063;28;20067;-90
2022/11/19 21:11:16;;;;;;;30.70;15.88;;;9.60;60.60;;;;;;5051788;28;20049;-92
2022/11/19 21:13:43;;;;;;;28.13;15.05;;;9.40;61.30;;;;;;5053459;28;20074;-90
2022/11/19 21:16:12;;;;;;;28.23;15.55;;;9.60;61.20;;;;;;5053909;28;20083;-88
2022/11/19 21:18:38;;;;;;;30.67;16.65;;;9.70;60.70;;;;;;5053443;28;20032;-88
2022/11/19 21:21:05;;;;;;;30.45;15.68;;;9.80;60.50;;;;;;5054399;28;20084;-90
2022/11/19 21:23:32;;;;;;;31.58;16.02;;;9.40;60.70;;;;;;5054325;28;20021;-89
2022/11/19 21:26:04;;;;;;;32.17;15.85;;;9.40;61.30;;;;;;5054080;28;20025;-92
2022/11/19 21:28:35;;;;;;;34.30;17.67;;;9.30;62.00;;;;;;5053600;28;20476;-90
2022/11/19 21:31:02;;;;;;;32.75;16.98;;;9.50;62.20;;;;;;5054011;28;20044;-93
2022/11/19 21:33:27;;;;;;;34.67;16.80;;;9.40;61.80;;;;;;5054026;28;20036;-88
2022/11/19 21:35:54;;;;;;;35.47;16.92;;;9.70;61.40;;;;;;5053896;28;20025;-89